Time;durP1;ratioP1;P1;durP2;ratioP2;P2;SDS_P1;SDS_P2;PMS_P1;PMS_P2;Temp;Humidity;BMP_temperature;BMP_pressure;BME280_temperature;BME280_humidity;BME280_pressure;Samples;Min_cycle;Max_cycle;Signal;HPM_P1;HPM_P2
2022/06/11 00:04:39;;;;;;;4.57;3.97;;;;;;;;;;10454736;28;20218;-68
2022/06/11 00:09:41;;;;;;;4.38;4.05;;;;;;;;;;10457400;28;20233;-68
2022/06/11 00:14:43;;;;;;;4.18;3.88;;;;;;;;;;10457438;28;20276;-68
2022/06/11 00:19:44;;;;;;;5.80;5.18;;;;;;;;;;10459012;28;20205;-67
2022/06/11 00:24:45;;;;;;;5.03;4.68;;;;;;;;;;10428101;28;20186;-67
2022/06/11 00:29:46;;;;;;;6.53;4.78;;;;;;;;;;10413307;28;20637;-67
2022/06/11 00:34:48;;;;;;;5.38;4.93;;;;;;;;;;10443998;28;21023;-67
2022/06/11 00:39:49;;;;;;;7.03;6.43;;;;;;;;;;10421443;28;20191;-68
2022/06/11 00:45:12;;;;;;;14.13;10.73;;;;;;;;;;10444022;28;20573;-68
2022/06/11 00:50:19;;;;;;;7.88;7.22;;;;;;;;;;10443929;28;20203;-68
2022/06/11 00:55:26;;;;;;;12.05;10.82;;;;;;;;;;10445529;28;20920;-67
2022/06/11 01:00:29;;;;;;;12.27;11.00;;;;;;;;;;10428689;28;20686;-67
2022/06/11 01:05:32;;;;;;;8.45;6.57;;;;;;;;;;10400286;28;20183;-68
2022/06/11 01:10:54;;;;;;;6.80;6.40;;;;;;;;;;10445647;28;20233;-68
2022/06/11 01:15:56;;;;;;;27.20;7.30;;;;;;;;;;10446216;28;20194;-68
2022/06/11 01:21:06;;;;;;;9.13;5.75;;;;;;;;;;10438838;28;20178;-67
2022/06/11 01:26:26;;;;;;;9.10;6.18;;;;;;;;;;10419303;28;20206;-67
2022/06/11 01:31:29;;;;;;;5.70;5.40;;;;;;;;;;10455468;28;20227;-68
2022/06/11 01:36:39;;;;;;;5.05;4.85;;;;;;;;;;10434046;28;20186;-68
2022/06/11 01:41:44;;;;;;;7.32;5.70;;;;;;;;;;10447513;28;20186;-68
2022/06/11 01:46:47;;;;;;;5.05;4.70;;;;;;;;;;10446863;28;20667;-68
2022/06/11 01:51:55;;;;;;;6.55;5.18;;;;;;;;;;10447076;28;20710;-68
2022/06/11 01:56:56;;;;;;;5.65;4.97;;;;;;;;;;10437928;28;20199;-68
2022/06/11 02:02:00;;;;;;;5.53;4.32;;;;;;;;;;10412190;28;20895;-68
2022/06/11 02:07:29;;;;;;;5.68;5.13;;;;;;;;;;10438775;28;20278;-68
2022/06/11 02:12:33;;;;;;;4.95;4.60;;;;;;;;;;10434984;28;20183;-68
2022/06/11 02:17:36;;;;;;;4.72;4.30;;;;;;;;;;10425429;28;20725;-68
2022/06/11 02:22:43;;;;;;;6.25;4.53;;;;;;;;;;10439488;28;20184;-68
2022/06/11 02:27:46;;;;;;;4.45;4.25;;;;;;;;;;10437209;28;20219;-68
2022/06/11 02:32:47;;;;;;;5.30;4.80;;;;;;;;;;10440933;28;20207;-68
2022/06/11 02:37:48;;;;;;;4.82;4.53;;;;;;;;;;10407099;28;20625;-68
2022/06/11 02:42:50;;;;;;;4.32;3.92;;;;;;;;;;10446060;28;20178;-68
2022/06/11 02:47:52;;;;;;;5.53;4.30;;;;;;;;;;10427721;28;20265;-68
2022/06/11 02:52:54;;;;;;;3.90;3.60;;;;;;;;;;10410945;28;20273;-68
2022/06/11 02:57:56;;;;;;;5.20;4.03;;;;;;;;;;10424143;28;20655;-68
2022/06/11 03:02:57;;;;;;;4.97;4.63;;;;;;;;;;10417441;28;20222;-67
2022/06/11 03:07:59;;;;;;;5.22;4.35;;;;;;;;;;10445887;28;20243;-68
2022/06/11 03:13:00;;;;;;;4.10;3.90;;;;;;;;;;10449888;28;20612;-68
2022/06/11 03:18:02;;;;;;;4.95;4.65;;;;;;;;;;10440952;28;20595;-68
2022/06/11 03:23:03;;;;;;;5.80;3.80;;;;;;;;;;10439645;28;20594;-68
2022/06/11 03:28:12;;;;;;;4.43;4.05;;;;;;;;;;10412424;28;20932;-68
2022/06/11 03:33:13;;;;;;;5.45;3.90;;;;;;;;;;10417070;28;20214;-67
2022/06/11 03:38:15;;;;;;;4.43;3.60;;;;;;;;;;10450747;28;20584;-67
2022/06/11 03:43:16;;;;;;;4.93;3.88;;;;;;;;;;10458145;28;20194;-68
2022/06/11 03:48:18;;;;;;;3.85;3.53;;;;;;;;;;10433958;28;20221;-68
2022/06/11 03:53:19;;;;;;;3.60;3.30;;;;;;;;;;10456567;28;20273;-68
2022/06/11 03:58:20;;;;;;;3.25;3.00;;;;;;;;;;10446129;28;20237;-68
2022/06/11 04:03:22;;;;;;;4.13;3.45;;;;;;;;;;10417161;28;20989;-68
2022/06/11 04:08:24;;;;;;;5.18;3.20;;;;;;;;;;10413033;28;20254;-68
2022/06/11 04:13:26;;;;;;;6.05;2.97;;;;;;;;;;10434169;28;20654;-68
2022/06/11 04:18:27;;;;;;;4.05;3.20;;;;;;;;;;10444891;28;20190;-68
2022/06/11 04:23:30;;;;;;;3.13;2.92;;;;;;;;;;10450929;28;20183;-68
2022/06/11 04:28:31;;;;;;;3.17;2.80;;;;;;;;;;10450143;28;20299;-68
2022/06/11 04:33:33;;;;;;;5.60;3.00;;;;;;;;;;10450786;28;20214;-68
2022/06/11 04:38:34;;;;;;;4.75;3.10;;;;;;;;;;10417229;28;20222;-68
2022/06/11 04:43:35;;;;;;;3.60;2.75;;;;;;;;;;10442621;28;20202;-68
2022/06/11 04:48:36;;;;;;;2.75;2.65;;;;;;;;;;10439332;28;20845;-68
2022/06/11 04:53:38;;;;;;;3.38;3.17;;;;;;;;;;10393012;28;20210;-68
2022/06/11 04:58:39;;;;;;;3.72;2.92;;;;;;;;;;10432545;28;20210;-68
2022/06/11 05:03:40;;;;;;;3.40;2.60;;;;;;;;;;10433090;28;20215;-68
2022/06/11 05:08:41;;;;;;;4.72;2.55;;;;;;;;;;10422017;28;20253;-68
2022/06/11 05:13:42;;;;;;;2.80;2.60;;;;;;;;;;10438997;28;20217;-68
2022/06/11 05:18:43;;;;;;;2.80;2.30;;;;;;;;;;10414131;28;20199;-68
2022/06/11 05:23:45;;;;;;;2.28;1.90;;;;;;;;;;10437050;28;20272;-69
2022/06/11 05:28:46;;;;;;;4.13;2.13;;;;;;;;;;10410074;28;20241;-69
2022/06/11 05:33:47;;;;;;;2.60;1.73;;;;;;;;;;10430045;28;20209;-68
2022/06/11 05:38:48;;;;;;;3.30;2.15;;;;;;;;;;10432615;28;21193;-68
2022/06/11 05:43:49;;;;;;;1.77;1.67;;;;;;;;;;10436068;28;20214;-67
2022/06/11 05:48:54;;;;;;;2.30;1.70;;;;;;;;;;10448210;28;20242;-69
2022/06/11 05:53:56;;;;;;;4.15;1.92;;;;;;;;;;10437746;28;20739;-69
2022/06/11 05:58:58;;;;;;;5.47;1.80;;;;;;;;;;10415025;28;20203;-69
2022/06/11 06:03:59;;;;;;;4.05;1.45;;;;;;;;;;10436007;28;20219;-69
2022/06/11 06:09:01;;;;;;;2.38;1.40;;;;;;;;;;10414366;28;20316;-68
2022/06/11 06:14:02;;;;;;;2.85;1.58;;;;;;;;;;10409677;28;20567;-69
2022/06/11 06:19:03;;;;;;;1.95;1.27;;;;;;;;;;10403209;28;20958;-68
2022/06/11 06:24:05;;;;;;;0.95;0.95;;;;;;;;;;10415557;28;20688;-68
2022/06/11 06:29:06;;;;;;;2.90;1.52;;;;;;;;;;10431375;28;20690;-68
2022/06/11 06:34:07;;;;;;;1.50;1.40;;;;;;;;;;10428304;28;20557;-69
2022/06/11 06:39:08;;;;;;;4.13;1.58;;;;;;;;;;10443668;28;20182;-68
2022/06/11 06:44:09;;;;;;;3.05;1.08;;;;;;;;;;10449488;28;20178;-67
2022/06/11 06:49:10;;;;;;;6.35;1.25;;;;;;;;;;10455435;28;20245;-68
2022/06/11 06:54:12;;;;;;;1.40;0.98;;;;;;;;;;10444793;28;20739;-68
2022/06/11 06:59:13;;;;;;;2.70;0.93;;;;;;;;;;10418554;28;20295;-68
2022/06/11 07:04:14;;;;;;;1.83;0.93;;;;;;;;;;10416769;28;20214;-69
2022/06/11 07:09:15;;;;;;;2.70;1.02;;;;;;;;;;10437082;28;20690;-69
2022/06/11 07:14:16;;;;;;;1.95;1.00;;;;;;;;;;10437343;28;20174;-69
2022/06/11 07:19:21;;;;;;;1.42;0.88;;;;;;;;;;10439886;28;20202;-68
2022/06/11 07:24:24;;;;;;;1.75;0.80;;;;;;;;;;10454357;28;20667;-69
2022/06/11 07:29:33;;;;;;;1.25;0.93;;;;;;;;;;10456742;28;20958;-69
2022/06/11 07:34:35;;;;;;;2.38;0.88;;;;;;;;;;10444970;28;20214;-69
2022/06/11 07:39:37;;;;;;;1.33;0.90;;;;;;;;;;10438868;28;20194;-69
2022/06/11 07:44:39;;;;;;;4.53;1.40;;;;;;;;;;10439226;28;20191;-69
2022/06/11 07:49:40;;;;;;;1.92;0.90;;;;;;;;;;10418374;28;20933;-69
2022/06/11 07:54:41;;;;;;;4.00;0.70;;;;;;;;;;10437195;28;20182;-68
2022/06/11 07:59:42;;;;;;;0.73;0.73;;;;;;;;;;10418635;28;20207;-68
2022/06/11 08:04:43;;;;;;;2.63;1.10;;;;;;;;;;10434576;28;20644;-68
2022/06/11 08:09:44;;;;;;;1.48;0.93;;;;;;;;;;10436011;28;20215;-67
2022/06/11 08:14:45;;;;;;;3.10;1.15;;;;;;;;;;10447832;28;20187;-68
2022/06/11 08:19:47;;;;;;;4.20;1.38;;;;;;;;;;10434417;28;20194;-68
2022/06/11 08:24:48;;;;;;;7.00;1.70;;;;;;;;;;10409920;28;20265;-68
2022/06/11 08:29:49;;;;;;;2.58;1.80;;;;;;;;;;10429771;28;20253;-67
2022/06/11 08:34:51;;;;;;;3.45;1.55;;;;;;;;;;10435528;28;20223;-68
2022/06/11 08:39:52;;;;;;;6.25;1.70;;;;;;;;;;10438950;28;20186;-68
2022/06/11 08:44:53;;;;;;;3.70;1.30;;;;;;;;;;10416107;28;20187;-68
2022/06/11 08:49:55;;;;;;;4.28;1.42;;;;;;;;;;10438726;28;20289;-68
2022/06/11 08:54:58;;;;;;;2.85;1.35;;;;;;;;;;10437526;28;20175;-67
2022/06/11 09:00:03;;;;;;;2.60;1.77;;;;;;;;;;10443327;28;20203;-68
2022/06/11 09:05:10;;;;;;;2.13;1.48;;;;;;;;;;10440730;28;20256;-68
2022/06/11 09:10:18;;;;;;;2.28;1.67;;;;;;;;;;10440598;28;20210;-68
2022/06/11 09:15:40;;;;;;;3.63;1.63;;;;;;;;;;10433878;28;20610;-68
2022/06/11 09:20:44;;;;;;;4.18;2.00;;;;;;;;;;10440257;28;20556;-68
2022/06/11 09:26:04;;;;;;;2.10;1.50;;;;;;;;;;10432602;28;20187;-67
2022/06/11 09:31:08;;;;;;;2.65;1.42;;;;;;;;;;10395351;28;20234;-67
2022/06/11 09:36:14;;;;;;;1.95;0.93;;;;;;;;;;10439158;28;20192;-66
2022/06/11 09:41:27;;;;;;;2.97;0.88;;;;;;;;;;10432750;28;20209;-67
2022/06/11 09:46:28;;;;;;;3.92;0.90;;;;;;;;;;10431266;28;20210;-68
2022/06/11 09:51:35;;;;;;;2.25;0.88;;;;;;;;;;10401865;28;20210;-67
2022/06/11 09:56:53;;;;;;;2.85;0.95;;;;;;;;;;10431209;28;20299;-67
2022/06/11 10:02:24;;;;;;;2.00;0.80;;;;;;;;;;10453684;28;20842;-67
2022/06/11 10:07:27;;;;;;;2.05;0.85;;;;;;;;;;10441528;28;20226;-68
2022/06/11 10:12:36;;;;;;;1.30;0.70;;;;;;;;;;10441078;28;20191;-68
2022/06/11 10:17:37;;;;;;;1.90;0.77;;;;;;;;;;10444179;28;20198;-67
2022/06/11 10:22:50;;;;;;;2.17;0.50;;;;;;;;;;10442397;28;20209;-68
2022/06/11 10:28:03;;;;;;;1.85;0.57;;;;;;;;;;10452056;28;20206;-68
2022/06/11 10:33:09;;;;;;;1.15;0.70;;;;;;;;;;10415994;28;20215;-66
2022/06/11 10:38:16;;;;;;;2.30;0.73;;;;;;;;;;10449315;28;20220;-65
2022/06/11 10:43:22;;;;;;;0.85;0.60;;;;;;;;;;10412106;28;20260;-67
2022/06/11 10:48:24;;;;;;;0.85;0.77;;;;;;;;;;10449651;28;20250;-68
2022/06/11 10:53:29;;;;;;;1.10;0.70;;;;;;;;;;10444347;28;20194;-66
2022/06/11 10:58:38;;;;;;;1.02;0.60;;;;;;;;;;10445508;28;20202;-66
2022/06/11 11:03:43;;;;;;;1.08;0.70;;;;;;;;;;10434150;28;20218;-68
2022/06/11 11:08:52;;;;;;;0.70;0.50;;;;;;;;;;10448917;28;20669;-66
2022/06/11 11:13:59;;;;;;;0.45;0.45;;;;;;;;;;10440242;28;20183;-68
2022/06/11 11:19:13;;;;;;;0.30;0.30;;;;;;;;;;10442225;28;20622;-65
2022/06/11 11:24:16;;;;;;;2.42;0.40;;;;;;;;;;10452258;28;20730;-66
2022/06/11 11:29:21;;;;;;;3.22;0.40;;;;;;;;;;10446483;28;20202;-67
2022/06/11 11:34:22;;;;;;;0.30;0.30;;;;;;;;;;10444191;28;20210;-67
2022/06/11 11:39:26;;;;;;;1.00;0.50;;;;;;;;;;10452268;28;20197;-66
2022/06/11 11:44:27;;;;;;;0.50;0.40;;;;;;;;;;10447480;28;20190;-67
2022/06/11 11:49:29;;;;;;;0.40;0.40;;;;;;;;;;10416627;28;20269;-67
2022/06/11 11:54:31;;;;;;;0.40;0.35;;;;;;;;;;10436661;28;20262;-67
2022/06/11 11:59:38;;;;;;;1.17;0.40;;;;;;;;;;10459958;28;20198;-67
2022/06/11 12:04:59;;;;;;;0.40;0.40;;;;;;;;;;10456195;28;20234;-67
2022/06/11 12:10:23;;;;;;;0.73;0.43;;;;;;;;;;10415404;28;20210;-67
2022/06/11 12:15:27;;;;;;;1.73;0.30;;;;;;;;;;10424233;28;20190;-67
2022/06/11 12:20:42;;;;;;;0.50;0.50;;;;;;;;;;10445792;28;20638;-67
2022/06/11 12:25:58;;;;;;;0.40;0.40;;;;;;;;;;10452371;28;20186;-67
2022/06/11 12:31:00;;;;;;;0.90;0.30;;;;;;;;;;10447016;28;20233;-67
2022/06/11 12:36:06;;;;;;;0.30;0.30;;;;;;;;;;10417934;28;21166;-67
2022/06/11 12:41:26;;;;;;;0.40;0.40;;;;;;;;;;10453706;28;20763;-66
2022/06/11 12:46:33;;;;;;;0.52;0.30;;;;;;;;;;10419339;28;20297;-67
2022/06/11 12:51:48;;;;;;;0.50;0.47;;;;;;;;;;10452543;28;20220;-67
2022/06/11 12:56:59;;;;;;;0.32;0.32;;;;;;;;;;10445618;28;20202;-67
2022/06/11 13:02:16;;;;;;;0.40;0.40;;;;;;;;;;10446563;28;20293;-68
2022/06/11 13:07:31;;;;;;;0.52;0.52;;;;;;;;;;10452228;28;20603;-67
2022/06/11 13:12:42;;;;;;;0.38;0.38;;;;;;;;;;10415073;28;20170;-67
2022/06/11 13:17:57;;;;;;;0.38;0.35;;;;;;;;;;10425007;28;20183;-68
2022/06/11 13:23:05;;;;;;;0.45;0.45;;;;;;;;;;10425688;28;20183;-68
2022/06/11 13:28:12;;;;;;;0.60;0.60;;;;;;;;;;10436407;28;20307;-68
2022/06/11 13:33:22;;;;;;;1.48;0.50;;;;;;;;;;10395185;28;20211;-67
2022/06/11 13:38:31;;;;;;;1.00;0.40;;;;;;;;;;10439647;28;20207;-67
2022/06/11 13:43:51;;;;;;;1.40;0.50;;;;;;;;;;10412087;28;20305;-68
2022/06/11 13:49:05;;;;;;;1.52;0.50;;;;;;;;;;10443491;28;20218;-67
2022/06/11 13:59:53;;;;;;;0.40;0.40;;;;;;;;;;10450503;28;20596;-68
2022/06/11 14:04:59;;;;;;;0.40;0.40;;;;;;;;;;10443155;28;20242;-67
2022/06/11 14:10:22;;;;;;;0.40;0.30;;;;;;;;;;10433401;28;20695;-68
2022/06/11 14:15:25;;;;;;;0.35;0.32;;;;;;;;;;10431190;28;20199;-67
2022/06/11 14:20:33;;;;;;;0.60;0.30;;;;;;;;;;10442331;28;20210;-67
2022/06/11 14:25:45;;;;;;;0.38;0.35;;;;;;;;;;10440525;28;20190;-67
2022/06/11 14:30:47;;;;;;;2.53;0.50;;;;;;;;;;10440879;28;20227;-66
2022/06/11 14:35:48;;;;;;;1.13;0.40;;;;;;;;;;10447434;28;20232;-68
2022/06/11 14:40:51;;;;;;;0.40;0.40;;;;;;;;;;10440437;28;20273;-68
2022/06/11 14:45:54;;;;;;;0.40;0.40;;;;;;;;;;10439277;28;20219;-67
2022/06/11 14:50:58;;;;;;;0.45;0.45;;;;;;;;;;10437398;28;20264;-66
2022/06/11 14:56:22;;;;;;;1.20;0.30;;;;;;;;;;10403737;28;20256;-68
2022/06/11 15:01:36;;;;;;;0.40;0.40;;;;;;;;;;10391663;28;20268;-67
2022/06/11 15:06:49;;;;;;;1.10;0.40;;;;;;;;;;10438800;28;20190;-67
2022/06/11 15:11:58;;;;;;;1.27;0.50;;;;;;;;;;10437373;28;21635;-68
2022/06/11 15:17:17;;;;;;;1.73;0.55;;;;;;;;;;10440909;28;20183;-67
2022/06/11 15:22:18;;;;;;;0.70;0.38;;;;;;;;;;10431789;28;20235;-68
2022/06/11 15:27:30;;;;;;;0.40;0.40;;;;;;;;;;10444540;28;20216;-67
2022/06/11 15:32:33;;;;;;;7.25;0.60;;;;;;;;;;10439307;28;20207;-67
2022/06/11 15:37:40;;;;;;;0.60;0.60;;;;;;;;;;10452072;28;20222;-66
2022/06/11 15:42:45;;;;;;;0.80;0.40;;;;;;;;;;10447728;28;20211;-67
2022/06/11 15:48:04;;;;;;;0.70;0.60;;;;;;;;;;10443365;28;20279;-66
2022/06/11 15:53:24;;;;;;;1.05;0.30;;;;;;;;;;10451473;28;20182;-66
2022/06/11 15:58:27;;;;;;;0.40;0.40;;;;;;;;;;10439293;28;20210;-66
2022/06/11 16:03:37;;;;;;;0.43;0.40;;;;;;;;;;10408712;28;20211;-68
2022/06/11 16:09:01;;;;;;;1.15;0.90;;;;;;;;;;10444174;28;20249;-67
2022/06/11 16:14:05;;;;;;;0.68;0.30;;;;;;;;;;10453398;28;20218;-67
2022/06/11 16:19:11;;;;;;;1.13;0.40;;;;;;;;;;10436001;28;20206;-67
2022/06/11 16:24:15;;;;;;;1.05;0.95;;;;;;;;;;10464649;28;20294;-67
2022/06/11 16:29:18;;;;;;;3.03;2.83;;;;;;;;;;10429151;28;20222;-66
2022/06/11 16:34:20;;;;;;;0.43;0.43;;;;;;;;;;10459613;28;20212;-69
2022/06/11 16:39:38;;;;;;;0.80;0.40;;;;;;;;;;10456939;28;20650;-66
2022/06/11 16:44:43;;;;;;;4.13;3.75;;;;;;;;;;10443139;28;20186;-69
2022/06/11 17:00:35;;;;;;;2.25;2.25;;;;;;;;;;10413199;28;20206;-67
2022/06/11 17:05:44;;;;;;;2.15;0.70;;;;;;;;;;10446903;28;20350;-67
2022/06/11 17:10:45;;;;;;;0.40;0.40;;;;;;;;;;10409854;28;20211;-67
2022/06/11 17:15:54;;;;;;;1.13;1.13;;;;;;;;;;10442336;28;20198;-68
2022/06/11 17:20:56;;;;;;;0.50;0.50;;;;;;;;;;10441160;28;20270;-68
2022/06/11 17:25:59;;;;;;;2.28;0.40;;;;;;;;;;10451048;28;20206;-67
2022/06/11 17:31:01;;;;;;;0.95;0.50;;;;;;;;;;10447108;28;20236;-66
2022/06/11 17:36:04;;;;;;;0.70;0.40;;;;;;;;;;10446458;28;20858;-67
2022/06/11 17:41:15;;;;;;;0.80;0.40;;;;;;;;;;10444399;28;20191;-67
2022/06/11 17:46:16;;;;;;;0.85;0.47;;;;;;;;;;10450050;28;20279;-68
2022/06/11 17:51:19;;;;;;;0.30;0.30;;;;;;;;;;10455291;28;20584;-67
2022/06/11 17:56:23;;;;;;;0.30;0.30;;;;;;;;;;10453997;28;20217;-67
2022/06/11 18:01:26;;;;;;;0.40;0.40;;;;;;;;;;10450921;28;20580;-68
2022/06/11 18:06:27;;;;;;;0.40;0.40;;;;;;;;;;10447737;28;20270;-68
2022/06/11 18:11:28;;;;;;;0.30;0.30;;;;;;;;;;10458674;28;20202;-69
2022/06/11 18:16:30;;;;;;;1.48;0.40;;;;;;;;;;10456750;28;20231;-69
2022/06/11 18:26:51;;;;;;;1.20;0.47;;;;;;;;;;10450385;28;20229;-69
2022/06/11 18:31:52;;;;;;;0.80;0.40;;;;;;;;;;10439113;28;20238;-68
2022/06/11 18:36:53;;;;;;;0.65;0.40;;;;;;;;;;10445979;28;20197;-69
2022/06/11 18:41:54;;;;;;;0.65;0.40;;;;;;;;;;10448053;28;20187;-69
2022/06/11 18:46:56;;;;;;;0.47;0.47;;;;;;;;;;10470367;28;20595;-69
2022/06/11 18:51:57;;;;;;;0.80;0.80;;;;;;;;;;10493295;28;20210;-69
2022/06/11 18:57:02;;;;;;;0.70;0.70;;;;;;;;;;10478246;28;20200;-69
2022/06/11 19:02:04;;;;;;;0.30;0.30;;;;;;;;;;10486954;28;20672;-69
2022/06/11 19:07:06;;;;;;;0.90;0.35;;;;;;;;;;10492458;28;20169;-69
2022/06/11 19:12:08;;;;;;;0.65;0.47;;;;;;;;;;10460132;28;20256;-69
2022/06/11 19:17:09;;;;;;;0.80;0.50;;;;;;;;;;10486751;28;20179;-69
2022/06/11 19:22:10;;;;;;;1.02;0.60;;;;;;;;;;10484310;28;20198;-69
2022/06/11 19:27:11;;;;;;;0.95;0.63;;;;;;;;;;10465766;28;20267;-69
2022/06/11 19:32:12;;;;;;;0.50;0.50;;;;;;;;;;10460859;28;20217;-69
2022/06/11 19:37:13;;;;;;;0.50;0.50;;;;;;;;;;10465564;28;20178;-69
2022/06/11 19:42:14;;;;;;;0.50;0.50;;;;;;;;;;10498104;28;20183;-69
2022/06/11 19:47:15;;;;;;;1.55;0.60;;;;;;;;;;10478871;28;20218;-70
2022/06/11 19:52:17;;;;;;;1.63;0.45;;;;;;;;;;10493667;28;20210;-70
2022/06/11 19:57:18;;;;;;;0.50;0.50;;;;;;;;;;10491990;28;20218;-70
2022/06/11 20:02:19;;;;;;;0.50;0.50;;;;;;;;;;10474949;28;20194;-69
2022/06/11 20:07:20;;;;;;;1.17;0.60;;;;;;;;;;10491052;28;20175;-70
2022/06/11 20:12:21;;;;;;;1.77;1.05;;;;;;;;;;10493183;28;20204;-69
2022/06/11 20:17:23;;;;;;;1.35;1.30;;;;;;;;;;10463865;28;20320;-70
2022/06/11 20:22:24;;;;;;;1.20;1.15;;;;;;;;;;10456334;28;20197;-69
2022/06/11 20:27:27;;;;;;;1.52;1.42;;;;;;;;;;10484303;28;20222;-69
2022/06/11 20:32:28;;;;;;;1.23;1.00;;;;;;;;;;10483147;28;20225;-69
2022/06/11 20:37:29;;;;;;;1.42;1.13;;;;;;;;;;10481988;28;20177;-70
2022/06/11 20:42:30;;;;;;;1.30;1.30;;;;;;;;;;10493868;28;21134;-69
2022/06/11 20:47:31;;;;;;;1.13;1.13;;;;;;;;;;10493790;28;20213;-69
2022/06/11 20:52:32;;;;;;;1.30;1.20;;;;;;;;;;10484824;28;20179;-69
2022/06/11 20:57:33;;;;;;;1.20;0.85;;;;;;;;;;10482651;28;20566;-69
2022/06/11 21:02:35;;;;;;;1.33;1.30;;;;;;;;;;10478092;28;20804;-70
2022/06/11 21:12:57;;;;;;;1.13;1.00;;;;;;;;;;10485041;28;20186;-69
2022/06/11 21:17:58;;;;;;;0.93;0.93;;;;;;;;;;10483583;28;20190;-69
2022/06/11 21:22:59;;;;;;;1.10;1.10;;;;;;;;;;10478508;28;20225;-69
2022/06/11 21:28:00;;;;;;;1.27;1.05;;;;;;;;;;10456202;28;20221;-69
2022/06/11 21:33:02;;;;;;;1.73;0.90;;;;;;;;;;10450616;28;20658;-69
2022/06/11 21:38:03;;;;;;;1.63;1.10;;;;;;;;;;10473112;28;20538;-70
2022/06/11 21:43:04;;;;;;;1.05;1.05;;;;;;;;;;10477801;28;20210;-70
2022/06/11 21:48:06;;;;;;;1.50;1.50;;;;;;;;;;10478412;28;20214;-69
2022/06/11 21:53:07;;;;;;;2.60;2.30;;;;;;;;;;10477032;28;20642;-70
2022/06/11 21:58:08;;;;;;;2.45;2.30;;;;;;;;;;10481720;28;20281;-70
2022/06/11 22:03:11;;;;;;;2.40;2.40;;;;;;;;;;10457836;28;20214;-70
2022/06/11 22:08:13;;;;;;;2.00;2.00;;;;;;;;;;10444536;28;20206;-70
2022/06/11 22:13:14;;;;;;;1.55;1.55;;;;;;;;;;10459811;28;20193;-70
2022/06/11 22:18:15;;;;;;;1.63;1.52;;;;;;;;;;10459488;28;20212;-70
2022/06/11 22:23:16;;;;;;;1.58;1.58;;;;;;;;;;10477234;28;20651;-70
2022/06/11 22:28:18;;;;;;;1.63;1.52;;;;;;;;;;10488353;28;20218;-70
2022/06/11 22:33:19;;;;;;;2.70;1.55;;;;;;;;;;10455731;28;20644;-70
2022/06/11 22:38:20;;;;;;;1.90;1.73;;;;;;;;;;10453019;28;20189;-70
2022/06/11 22:43:21;;;;;;;2.00;1.90;;;;;;;;;;10479497;28;20510;-71
2022/06/11 22:48:22;;;;;;;2.85;1.73;;;;;;;;;;10471923;28;20732;-70
2022/06/11 22:53:24;;;;;;;1.70;1.70;;;;;;;;;;10478499;28;20202;-70
2022/06/11 22:58:26;;;;;;;1.92;1.83;;;;;;;;;;10451981;28;20217;-70
2022/06/11 23:03:30;;;;;;;1.48;1.48;;;;;;;;;;10458661;28;20228;-70
2022/06/11 23:08:32;;;;;;;1.10;1.10;;;;;;;;;;10464198;28;20209;-70
2022/06/11 23:13:33;;;;;;;1.65;1.65;;;;;;;;;;10481026;28;20732;-70
2022/06/11 23:18:34;;;;;;;1.52;1.42;;;;;;;;;;10454413;28;20175;-70
2022/06/11 23:23:36;;;;;;;1.55;1.45;;;;;;;;;;10451414;28;20964;-70
2022/06/11 23:28:37;;;;;;;1.48;1.45;;;;;;;;;;10460122;28;20643;-69
2022/06/11 23:33:39;;;;;;;1.50;1.40;;;;;;;;;;10461986;28;20229;-70
2022/06/11 23:38:40;;;;;;;1.95;1.80;;;;;;;;;;10477471;28;20217;-70
2022/06/11 23:43:42;;;;;;;2.85;2.13;;;;;;;;;;10459619;28;20281;-70
2022/06/11 23:48:45;;;;;;;1.42;1.33;;;;;;;;;;10489647;28;20230;-70
2022/06/11 23:53:47;;;;;;;2.17;2.05;;;;;;;;;;10459501;28;20200;-70
2022/06/11 23:58:48;;;;;;;1.92;1.83;;;;;;;;;;10457803;28;20276;-70
